sensor_id;sensor_type;location;lat;lon;timestamp;P1;durP1;ratioP1;P2;durP2;ratioP2
37851;SDS011;23691;52.486;4.650;2022-11-20T00:00:13;17.63;;;7.80;;
37851;SDS011;23691;52.486;4.650;2022-11-20T00:02:40;17.17;;;7.53;;
37851;SDS011;23691;52.486;4.650;2022-11-20T00:05:05;19.17;;;7.30;;
37851;SDS011;23691;52.486;4.650;2022-11-20T00:07:31;18.58;;;7.70;;
37851;SDS011;23691;52.486;4.650;2022-11-20T00:09:57;20.80;;;7.55;;
37851;SDS011;23691;52.486;4.650;2022-11-20T00:12:22;19.05;;;7.63;;
37851;SDS011;23691;52.486;4.650;2022-11-20T00:14:47;20.00;;;7.97;;
37851;SDS011;23691;52.486;4.650;2022-11-20T00:17:14;15.48;;;6.75;;
37851;SDS011;23691;52.486;4.650;2022-11-20T00:19:40;18.67;;;7.82;;
37851;SDS011;23691;52.486;4.650;2022-11-20T00:22:05;21.38;;;7.55;;
37851;SDS011;23691;52.486;4.650;2022-11-20T00:24:31;18.98;;;7.63;;
37851;SDS011;23691;52.486;4.650;2022-11-20T00:26:56;16.23;;;6.53;;
37851;SDS011;23691;52.486;4.650;2022-11-20T00:29:21;20.48;;;7.53;;
37851;SDS011;23691;52.486;4.650;2022-11-20T00:31:47;17.75;;;7.25;;
37851;SDS011;23691;52.486;4.650;2022-11-20T00:34:12;20.17;;;6.97;;
37851;SDS011;23691;52.486;4.650;2022-11-20T00:36:38;22.70;;;7.28;;
37851;SDS011;23691;52.486;4.650;2022-11-20T00:39:03;24.08;;;7.38;;
37851;SDS011;23691;52.486;4.650;2022-11-20T00:41:29;21.65;;;8.38;;
37851;SDS011;23691;52.486;4.650;2022-11-20T00:43:55;21.50;;;7.00;;
37851;SDS011;23691;52.486;4.650;2022-11-20T00:46:22;17.42;;;6.90;;
37851;SDS011;23691;52.486;4.650;2022-11-20T00:48:49;21.05;;;7.28;;
37851;SDS011;23691;52.486;4.650;2022-11-20T00:51:15;17.30;;;6.93;;
37851;SDS011;23691;52.486;4.650;2022-11-20T00:53:42;17.48;;;7.00;;
37851;SDS011;23691;52.486;4.650;2022-11-20T00:56:12;20.23;;;7.43;;
37851;SDS011;23691;52.486;4.650;2022-11-20T00:58:39;20.60;;;7.93;;
37851;SDS011;23691;52.486;4.650;2022-11-20T01:01:07;19.17;;;7.40;;
37851;SDS011;23691;52.486;4.650;2022-11-20T01:03:48;21.85;;;7.95;;
37851;SDS011;23691;52.486;4.650;2022-11-20T01:08:42;24.30;;;9.35;;
37851;SDS011;23691;52.486;4.650;2022-11-20T01:11:09;21.25;;;7.70;;
37851;SDS011;23691;52.486;4.650;2022-11-20T01:13:40;19.00;;;7.15;;
37851;SDS011;23691;52.486;4.650;2022-11-20T01:16:09;18.67;;;7.80;;
37851;SDS011;23691;52.486;4.650;2022-11-20T01:18:43;21.48;;;7.00;;
37851;SDS011;23691;52.486;4.650;2022-11-20T01:23:41;19.52;;;6.80;;
37851;SDS011;23691;52.486;4.650;2022-11-20T01:26:09;20.02;;;7.97;;
37851;SDS011;23691;52.486;4.650;2022-11-20T01:28:37;18.70;;;6.80;;
37851;SDS011;23691;52.486;4.650;2022-11-20T01:33:47;15.20;;;6.88;;
37851;SDS011;23691;52.486;4.650;2022-11-20T01:36:16;17.17;;;7.03;;
37851;SDS011;23691;52.486;4.650;2022-11-20T01:38:43;15.00;;;6.28;;
37851;SDS011;23691;52.486;4.650;2022-11-20T01:41:09;15.07;;;6.82;;
37851;SDS011;23691;52.486;4.650;2022-11-20T01:43:36;19.95;;;7.05;;
37851;SDS011;23691;52.486;4.650;2022-11-20T01:48:33;18.45;;;7.78;;
37851;SDS011;23691;52.486;4.650;2022-11-20T01:51:10;19.58;;;7.63;;
37851;SDS011;23691;52.486;4.650;2022-11-20T01:53:41;20.38;;;7.43;;
37851;SDS011;23691;52.486;4.650;2022-11-20T01:56:08;27.63;;;7.80;;
37851;SDS011;23691;52.486;4.650;2022-11-20T01:58:38;19.40;;;7.60;;
37851;SDS011;23691;52.486;4.650;2022-11-20T02:01:07;21.40;;;8.00;;
37851;SDS011;23691;52.486;4.650;2022-11-20T02:03:33;18.40;;;7.32;;
37851;SDS011;23691;52.486;4.650;2022-11-20T02:08:30;19.48;;;7.22;;
37851;SDS011;23691;52.486;4.650;2022-11-20T02:10:57;24.48;;;7.63;;
37851;SDS011;23691;52.486;4.650;2022-11-20T02:13:22;16.13;;;6.95;;
37851;SDS011;23691;52.486;4.650;2022-11-20T02:16:08;18.27;;;7.15;;
37851;SDS011;23691;52.486;4.650;2022-11-20T02:18:38;22.65;;;7.20;;
37851;SDS011;23691;52.486;4.650;2022-11-20T02:21:09;20.77;;;7.32;;
37851;SDS011;23691;52.486;4.650;2022-11-20T02:26:53;19.88;;;7.72;;
37851;SDS011;23691;52.486;4.650;2022-11-20T02:29:41;18.73;;;7.43;;
37851;SDS011;23691;52.486;4.650;2022-11-20T02:34:49;18.77;;;7.57;;
37851;SDS011;23691;52.486;4.650;2022-11-20T02:37:15;16.23;;;7.18;;
37851;SDS011;23691;52.486;4.650;2022-11-20T02:39:42;18.25;;;7.03;;
37851;SDS011;23691;52.486;4.650;2022-11-20T02:42:09;20.58;;;7.18;;
37851;SDS011;23691;52.486;4.650;2022-11-20T02:44:35;17.60;;;7.35;;
37851;SDS011;23691;52.486;4.650;2022-11-20T02:47:00;17.92;;;7.47;;
37851;SDS011;23691;52.486;4.650;2022-11-20T02:49:25;19.60;;;7.18;;
37851;SDS011;23691;52.486;4.650;2022-11-20T02:51:51;15.65;;;6.30;;
37851;SDS011;23691;52.486;4.650;2022-11-20T02:54:20;19.15;;;7.22;;
37851;SDS011;23691;52.486;4.650;2022-11-20T02:56:46;18.70;;;7.47;;
37851;SDS011;23691;52.486;4.650;2022-11-20T02:59:12;17.95;;;7.00;;
37851;SDS011;23691;52.486;4.650;2022-11-20T03:01:38;15.07;;;6.70;;
37851;SDS011;23691;52.486;4.650;2022-11-20T03:04:04;16.90;;;6.97;;
37851;SDS011;23691;52.486;4.650;2022-11-20T03:06:29;15.43;;;6.32;;
37851;SDS011;23691;52.486;4.650;2022-11-20T03:08:54;16.15;;;6.20;;
37851;SDS011;23691;52.486;4.650;2022-11-20T03:11:20;16.95;;;6.78;;
37851;SDS011;23691;52.486;4.650;2022-11-20T03:13:47;16.25;;;6.13;;
37851;SDS011;23691;52.486;4.650;2022-11-20T03:16:13;16.42;;;6.47;;
37851;SDS011;23691;52.486;4.650;2022-11-20T03:18:41;16.33;;;6.03;;
37851;SDS011;23691;52.486;4.650;2022-11-20T03:21:08;14.30;;;5.78;;
37851;SDS011;23691;52.486;4.650;2022-11-20T03:23:34;14.10;;;6.32;;
37851;SDS011;23691;52.486;4.650;2022-11-20T03:26:11;15.27;;;6.38;;
37851;SDS011;23691;52.486;4.650;2022-11-20T03:28:38;14.53;;;5.93;;
37851;SDS011;23691;52.486;4.650;2022-11-20T03:31:08;14.95;;;6.15;;
37851;SDS011;23691;52.486;4.650;2022-11-20T03:33:35;15.98;;;6.50;;
37851;SDS011;23691;52.486;4.650;2022-11-20T03:36:01;15.98;;;6.35;;
37851;SDS011;23691;52.486;4.650;2022-11-20T03:38:31;14.57;;;5.53;;
37851;SDS011;23691;52.486;4.650;2022-11-20T03:41:04;15.07;;;6.72;;
37851;SDS011;23691;52.486;4.650;2022-11-20T03:43:31;16.25;;;6.57;;
37851;SDS011;23691;52.486;4.650;2022-11-20T03:45:57;19.00;;;6.55;;
37851;SDS011;23691;52.486;4.650;2022-11-20T03:48:24;15.45;;;5.38;;
37851;SDS011;23691;52.486;4.650;2022-11-20T03:50:50;15.43;;;5.63;;
37851;SDS011;23691;52.486;4.650;2022-11-20T03:53:16;15.27;;;6.00;;
37851;SDS011;23691;52.486;4.650;2022-11-20T03:55:42;26.08;;;6.70;;
37851;SDS011;23691;52.486;4.650;2022-11-20T03:58:07;14.32;;;6.20;;
37851;SDS011;23691;52.486;4.650;2022-11-20T04:00:35;15.27;;;6.53;;
37851;SDS011;23691;52.486;4.650;2022-11-20T04:03:01;14.98;;;5.55;;
37851;SDS011;23691;52.486;4.650;2022-11-20T04:05:27;14.52;;;6.18;;
37851;SDS011;23691;52.486;4.650;2022-11-20T04:07:53;15.68;;;6.03;;
37851;SDS011;23691;52.486;4.650;2022-11-20T04:10:18;15.63;;;5.90;;
37851;SDS011;23691;52.486;4.650;2022-11-20T04:12:44;15.30;;;5.53;;
37851;SDS011;23691;52.486;4.650;2022-11-20T04:15:09;13.70;;;5.90;;
37851;SDS011;23691;52.486;4.650;2022-11-20T04:17:35;13.45;;;5.57;;
37851;SDS011;23691;52.486;4.650;2022-11-20T04:20:00;16.35;;;6.00;;
37851;SDS011;23691;52.486;4.650;2022-11-20T04:22:26;12.40;;;4.88;;
37851;SDS011;23691;52.486;4.650;2022-11-20T04:24:51;17.25;;;5.82;;
37851;SDS011;23691;52.486;4.650;2022-11-20T04:27:17;16.02;;;5.90;;
37851;SDS011;23691;52.486;4.650;2022-11-20T04:29:42;14.32;;;5.47;;
37851;SDS011;23691;52.486;4.650;2022-11-20T04:32:08;15.90;;;5.68;;
37851;SDS011;23691;52.486;4.650;2022-11-20T04:34:33;17.25;;;6.32;;
37851;SDS011;23691;52.486;4.650;2022-11-20T04:36:58;13.90;;;6.00;;
37851;SDS011;23691;52.486;4.650;2022-11-20T04:39:24;14.65;;;5.95;;
37851;SDS011;23691;52.486;4.650;2022-11-20T04:41:49;16.17;;;5.93;;
37851;SDS011;23691;52.486;4.650;2022-11-20T04:44:35;16.95;;;6.75;;
37851;SDS011;23691;52.486;4.650;2022-11-20T04:47:00;16.63;;;5.90;;
37851;SDS011;23691;52.486;4.650;2022-11-20T04:49:25;13.30;;;5.60;;
37851;SDS011;23691;52.486;4.650;2022-11-20T04:51:53;15.88;;;6.05;;
37851;SDS011;23691;52.486;4.650;2022-11-20T04:54:20;16.55;;;5.70;;
37851;SDS011;23691;52.486;4.650;2022-11-20T04:56:48;13.60;;;5.40;;
37851;SDS011;23691;52.486;4.650;2022-11-20T04:59:14;15.15;;;6.05;;
37851;SDS011;23691;52.486;4.650;2022-11-20T05:01:39;13.15;;;5.32;;
37851;SDS011;23691;52.486;4.650;2022-11-20T05:04:05;15.20;;;6.15;;
37851;SDS011;23691;52.486;4.650;2022-11-20T05:06:31;20.27;;;6.05;;
37851;SDS011;23691;52.486;4.650;2022-11-20T05:08:56;15.10;;;5.75;;
37851;SDS011;23691;52.486;4.650;2022-11-20T05:11:22;15.93;;;6.18;;
37851;SDS011;23691;52.486;4.650;2022-11-20T05:13:48;16.38;;;6.25;;
37851;SDS011;23691;52.486;4.650;2022-11-20T05:16:16;16.40;;;6.28;;
37851;SDS011;23691;52.486;4.650;2022-11-20T05:18:45;14.65;;;6.35;;
37851;SDS011;23691;52.486;4.650;2022-11-20T05:21:11;16.55;;;6.20;;
37851;SDS011;23691;52.486;4.650;2022-11-20T05:23:38;15.48;;;6.53;;
37851;SDS011;23691;52.486;4.650;2022-11-20T05:26:05;15.93;;;6.63;;
37851;SDS011;23691;52.486;4.650;2022-11-20T05:28:31;17.75;;;6.15;;
37851;SDS011;23691;52.486;4.650;2022-11-20T05:31:04;16.08;;;6.28;;
37851;SDS011;23691;52.486;4.650;2022-11-20T05:33:33;17.83;;;6.45;;
37851;SDS011;23691;52.486;4.650;2022-11-20T05:36:00;19.42;;;6.43;;
37851;SDS011;23691;52.486;4.650;2022-11-20T05:38:26;15.93;;;6.03;;
37851;SDS011;23691;52.486;4.650;2022-11-20T05:40:52;14.80;;;6.45;;
37851;SDS011;23691;52.486;4.650;2022-11-20T05:43:17;14.75;;;5.95;;
37851;SDS011;23691;52.486;4.650;2022-11-20T05:45:50;15.30;;;6.32;;
37851;SDS011;23691;52.486;4.650;2022-11-20T05:48:17;15.85;;;6.25;;
37851;SDS011;23691;52.486;4.650;2022-11-20T05:50:42;16.10;;;6.25;;
37851;SDS011;23691;52.486;4.650;2022-11-20T05:53:07;14.88;;;6.07;;
37851;SDS011;23691;52.486;4.650;2022-11-20T05:55:33;17.15;;;6.18;;
37851;SDS011;23691;52.486;4.650;2022-11-20T05:57:59;14.55;;;6.05;;
37851;SDS011;23691;52.486;4.650;2022-11-20T06:00:25;15.55;;;6.78;;
37851;SDS011;23691;52.486;4.650;2022-11-20T06:02:50;18.40;;;6.60;;
37851;SDS011;23691;52.486;4.650;2022-11-20T06:05:16;15.45;;;5.97;;
37851;SDS011;23691;52.486;4.650;2022-11-20T06:07:43;16.55;;;5.78;;
37851;SDS011;23691;52.486;4.650;2022-11-20T06:10:10;18.90;;;6.75;;
37851;SDS011;23691;52.486;4.650;2022-11-20T06:12:36;15.88;;;6.20;;
37851;SDS011;23691;52.486;4.650;2022-11-20T06:15:04;17.23;;;6.47;;
37851;SDS011;23691;52.486;4.650;2022-11-20T06:17:30;16.10;;;6.22;;
37851;SDS011;23691;52.486;4.650;2022-11-20T06:19:57;17.33;;;7.15;;
37851;SDS011;23691;52.486;4.650;2022-11-20T06:22:22;17.27;;;6.57;;
37851;SDS011;23691;52.486;4.650;2022-11-20T06:24:48;17.70;;;6.78;;
37851;SDS011;23691;52.486;4.650;2022-11-20T06:27:16;19.15;;;7.07;;
37851;SDS011;23691;52.486;4.650;2022-11-20T06:29:41;15.77;;;6.40;;
37851;SDS011;23691;52.486;4.650;2022-11-20T06:32:07;23.25;;;7.05;;
37851;SDS011;23691;52.486;4.650;2022-11-20T06:34:33;16.17;;;6.65;;
37851;SDS011;23691;52.486;4.650;2022-11-20T06:36:58;21.20;;;6.38;;
37851;SDS011;23691;52.486;4.650;2022-11-20T06:39:23;15.45;;;6.10;;
37851;SDS011;23691;52.486;4.650;2022-11-20T06:41:52;16.02;;;6.80;;
37851;SDS011;23691;52.486;4.650;2022-11-20T06:44:17;15.05;;;6.22;;
37851;SDS011;23691;52.486;4.650;2022-11-20T06:46:42;15.05;;;6.18;;
37851;SDS011;23691;52.486;4.650;2022-11-20T06:49:08;18.08;;;7.25;;
37851;SDS011;23691;52.486;4.650;2022-11-20T06:51:33;19.13;;;6.78;;
37851;SDS011;23691;52.486;4.650;2022-11-20T06:53:59;14.77;;;5.80;;
37851;SDS011;23691;52.486;4.650;2022-11-20T06:56:25;15.43;;;6.30;;
37851;SDS011;23691;52.486;4.650;2022-11-20T06:58:51;21.45;;;7.05;;
37851;SDS011;23691;52.486;4.650;2022-11-20T07:01:16;15.73;;;6.00;;
37851;SDS011;23691;52.486;4.650;2022-11-20T07:03:42;20.88;;;7.28;;
37851;SDS011;23691;52.486;4.650;2022-11-20T07:06:08;16.30;;;6.75;;
37851;SDS011;23691;52.486;4.650;2022-11-20T07:08:33;18.77;;;6.47;;
37851;SDS011;23691;52.486;4.650;2022-11-20T07:11:00;17.30;;;7.72;;
37851;SDS011;23691;52.486;4.650;2022-11-20T07:13:27;21.80;;;6.80;;
37851;SDS011;23691;52.486;4.650;2022-11-20T07:15:53;18.20;;;7.05;;
37851;SDS011;23691;52.486;4.650;2022-11-20T07:18:19;16.85;;;6.93;;
37851;SDS011;23691;52.486;4.650;2022-11-20T07:20:44;17.77;;;6.97;;
37851;SDS011;23691;52.486;4.650;2022-11-20T07:23:10;19.00;;;7.93;;
37851;SDS011;23691;52.486;4.650;2022-11-20T07:25:35;16.33;;;6.60;;
37851;SDS011;23691;52.486;4.650;2022-11-20T07:28:02;18.17;;;7.53;;
37851;SDS011;23691;52.486;4.650;2022-11-20T07:30:29;15.38;;;6.82;;
37851;SDS011;23691;52.486;4.650;2022-11-20T07:32:56;19.58;;;7.68;;
37851;SDS011;23691;52.486;4.650;2022-11-20T07:35:24;24.05;;;8.38;;
37851;SDS011;23691;52.486;4.650;2022-11-20T07:37:49;20.48;;;9.00;;
37851;SDS011;23691;52.486;4.650;2022-11-20T07:40:15;17.80;;;7.50;;
37851;SDS011;23691;52.486;4.650;2022-11-20T07:42:48;21.88;;;8.90;;
37851;SDS011;23691;52.486;4.650;2022-11-20T07:45:15;21.88;;;8.82;;
37851;SDS011;23691;52.486;4.650;2022-11-20T07:47:41;21.17;;;9.32;;
37851;SDS011;23691;52.486;4.650;2022-11-20T07:50:07;23.38;;;8.55;;
37851;SDS011;23691;52.486;4.650;2022-11-20T07:52:33;21.92;;;8.75;;
37851;SDS011;23691;52.486;4.650;2022-11-20T07:54:58;19.45;;;8.80;;
37851;SDS011;23691;52.486;4.650;2022-11-20T07:57:24;20.35;;;9.18;;
37851;SDS011;23691;52.486;4.650;2022-11-20T07:59:49;24.30;;;9.70;;
37851;SDS011;23691;52.486;4.650;2022-11-20T08:02:14;20.50;;;9.38;;
37851;SDS011;23691;52.486;4.650;2022-11-20T08:04:40;47.30;;;15.15;;
37851;SDS011;23691;52.486;4.650;2022-11-20T08:07:05;31.52;;;12.10;;
37851;SDS011;23691;52.486;4.650;2022-11-20T08:09:30;23.38;;;10.15;;
37851;SDS011;23691;52.486;4.650;2022-11-20T08:11:56;24.83;;;10.13;;
37851;SDS011;23691;52.486;4.650;2022-11-20T08:14:39;22.75;;;9.82;;
37851;SDS011;23691;52.486;4.650;2022-11-20T08:17:08;21.58;;;10.27;;
37851;SDS011;23691;52.486;4.650;2022-11-20T08:21:59;20.55;;;9.43;;
37851;SDS011;23691;52.486;4.650;2022-11-20T08:24:24;21.60;;;9.25;;
37851;SDS011;23691;52.486;4.650;2022-11-20T08:26:51;20.63;;;8.55;;
37851;SDS011;23691;52.486;4.650;2022-11-20T08:29:17;20.73;;;9.80;;
37851;SDS011;23691;52.486;4.650;2022-11-20T08:31:42;20.55;;;9.23;;
37851;SDS011;23691;52.486;4.650;2022-11-20T08:34:08;20.23;;;9.07;;
37851;SDS011;23691;52.486;4.650;2022-11-20T08:36:33;20.88;;;8.95;;
37851;SDS011;23691;52.486;4.650;2022-11-20T08:39:00;24.25;;;10.43;;
37851;SDS011;23691;52.486;4.650;2022-11-20T08:41:25;22.20;;;9.65;;
37851;SDS011;23691;52.486;4.650;2022-11-20T08:43:59;24.80;;;11.20;;
37851;SDS011;23691;52.486;4.650;2022-11-20T08:46:27;23.73;;;10.50;;
37851;SDS011;23691;52.486;4.650;2022-11-20T08:48:59;21.42;;;9.57;;
37851;SDS011;23691;52.486;4.650;2022-11-20T08:51:24;23.35;;;10.18;;
37851;SDS011;23691;52.486;4.650;2022-11-20T08:53:50;19.05;;;9.13;;
37851;SDS011;23691;52.486;4.650;2022-11-20T08:56:16;21.10;;;9.63;;
37851;SDS011;23691;52.486;4.650;2022-11-20T08:58:42;23.63;;;10.38;;
37851;SDS011;23691;52.486;4.650;2022-11-20T09:01:08;21.73;;;10.32;;
37851;SDS011;23691;52.486;4.650;2022-11-20T09:03:33;27.55;;;17.10;;
37851;SDS011;23691;52.486;4.650;2022-11-20T09:06:03;22.95;;;10.52;;
37851;SDS011;23691;52.486;4.650;2022-11-20T09:08:31;23.38;;;10.45;;
37851;SDS011;23691;52.486;4.650;2022-11-20T09:10:57;21.45;;;9.70;;
37851;SDS011;23691;52.486;4.650;2022-11-20T09:13:24;20.75;;;9.63;;
37851;SDS011;23691;52.486;4.650;2022-11-20T09:15:54;21.73;;;11.05;;
37851;SDS011;23691;52.486;4.650;2022-11-20T09:18:21;22.85;;;10.18;;
37851;SDS011;23691;52.486;4.650;2022-11-20T09:20:47;24.75;;;9.40;;
37851;SDS011;23691;52.486;4.650;2022-11-20T09:23:13;24.98;;;11.02;;
37851;SDS011;23691;52.486;4.650;2022-11-20T09:25:38;22.80;;;10.10;;
37851;SDS011;23691;52.486;4.650;2022-11-20T09:28:03;22.42;;;9.82;;
37851;SDS011;23691;52.486;4.650;2022-11-20T09:30:30;27.83;;;17.52;;
37851;SDS011;23691;52.486;4.650;2022-11-20T09:32:55;23.77;;;11.30;;
37851;SDS011;23691;52.486;4.650;2022-11-20T09:35:21;24.45;;;11.35;;
37851;SDS011;23691;52.486;4.650;2022-11-20T09:37:46;22.23;;;10.55;;
37851;SDS011;23691;52.486;4.650;2022-11-20T09:40:22;22.25;;;11.13;;
37851;SDS011;23691;52.486;4.650;2022-11-20T09:50:32;25.45;;;11.65;;
37851;SDS011;23691;52.486;4.650;2022-11-20T09:55:46;29.15;;;17.48;;
37851;SDS011;23691;52.486;4.650;2022-11-20T09:58:31;25.02;;;12.02;;
37851;SDS011;23691;52.486;4.650;2022-11-20T10:01:07;22.00;;;9.88;;
37851;SDS011;23691;52.486;4.650;2022-11-20T10:11:44;24.20;;;11.63;;
37851;SDS011;23691;52.486;4.650;2022-11-20T10:17:26;24.80;;;10.25;;
37851;SDS011;23691;52.486;4.650;2022-11-20T10:20:02;27.88;;;12.48;;
37851;SDS011;23691;52.486;4.650;2022-11-20T10:23:13;30.73;;;17.85;;
37851;SDS011;23691;52.486;4.650;2022-11-20T10:25:46;25.30;;;17.30;;
37851;SDS011;23691;52.486;4.650;2022-11-20T10:30:46;26.40;;;16.88;;
37851;SDS011;23691;52.486;4.650;2022-11-20T10:33:22;26.38;;;11.25;;
37851;SDS011;23691;52.486;4.650;2022-11-20T10:36:14;23.33;;;12.25;;
37851;SDS011;23691;52.486;4.650;2022-11-20T10:38:53;25.63;;;10.80;;
37851;SDS011;23691;52.486;4.650;2022-11-20T10:41:24;39.15;;;15.02;;
37851;SDS011;23691;52.486;4.650;2022-11-20T10:43:56;83.38;;;25.60;;
37851;SDS011;23691;52.486;4.650;2022-11-20T10:46:44;325.00;;;100.13;;
37851;SDS011;23691;52.486;4.650;2022-11-20T10:49:16;133.02;;;44.50;;
37851;SDS011;23691;52.486;4.650;2022-11-20T10:55:05;86.18;;;25.40;;
37851;SDS011;23691;52.486;4.650;2022-11-20T10:57:38;116.45;;;42.90;;
37851;SDS011;23691;52.486;4.650;2022-11-20T11:00:19;58.75;;;28.42;;
37851;SDS011;23691;52.486;4.650;2022-11-20T11:02:52;38.08;;;23.05;;
37851;SDS011;23691;52.486;4.650;2022-11-20T11:05:23;46.20;;;28.05;;
37851;SDS011;23691;52.486;4.650;2022-11-20T11:07:56;50.00;;;23.13;;
37851;SDS011;23691;52.486;4.650;2022-11-20T11:10:45;67.20;;;40.63;;
37851;SDS011;23691;52.486;4.650;2022-11-20T11:13:19;101.88;;;55.47;;
37851;SDS011;23691;52.486;4.650;2022-11-20T11:15:45;66.65;;;36.17;;
37851;SDS011;23691;52.486;4.650;2022-11-20T11:18:11;42.70;;;27.10;;
37851;SDS011;23691;52.486;4.650;2022-11-20T11:20:36;30.65;;;14.75;;
37851;SDS011;23691;52.486;4.650;2022-11-20T11:23:02;31.13;;;20.17;;
37851;SDS011;23691;52.486;4.650;2022-11-20T11:25:33;26.92;;;12.70;;
37851;SDS011;23691;52.486;4.650;2022-11-20T11:28:20;29.23;;;19.52;;
37851;SDS011;23691;52.486;4.650;2022-11-20T11:30:46;26.33;;;13.00;;
37851;SDS011;23691;52.486;4.650;2022-11-20T11:33:21;28.80;;;18.85;;
37851;SDS011;23691;52.486;4.650;2022-11-20T11:38:44;32.63;;;21.02;;
37851;SDS011;23691;52.486;4.650;2022-11-20T11:41:15;36.28;;;21.40;;
37851;SDS011;23691;52.486;4.650;2022-11-20T11:43:50;30.42;;;18.98;;
37851;SDS011;23691;52.486;4.650;2022-11-20T11:46:37;32.67;;;13.30;;
37851;SDS011;23691;52.486;4.650;2022-11-20T11:54:18;36.03;;;14.75;;
37851;SDS011;23691;52.486;4.650;2022-11-20T11:56:48;57.40;;;17.00;;
37851;SDS011;23691;52.486;4.650;2022-11-20T11:59:17;46.65;;;22.98;;
37851;SDS011;23691;52.486;4.650;2022-11-20T12:02:11;37.22;;;16.05;;
37851;SDS011;23691;52.486;4.650;2022-11-20T12:04:50;41.40;;;17.20;;
37851;SDS011;23691;52.486;4.650;2022-11-20T12:07:29;37.90;;;22.38;;
37851;SDS011;23691;52.486;4.650;2022-11-20T12:10:18;57.30;;;28.00;;
37851;SDS011;23691;52.486;4.650;2022-11-20T12:13:04;41.22;;;23.60;;
37851;SDS011;23691;52.486;4.650;2022-11-20T12:15:44;36.97;;;22.20;;
37851;SDS011;23691;52.486;4.650;2022-11-20T12:18:14;34.92;;;16.42;;
37851;SDS011;23691;52.486;4.650;2022-11-20T12:20:44;38.60;;;23.27;;
37851;SDS011;23691;52.486;4.650;2022-11-20T12:24:05;32.38;;;15.55;;
37851;SDS011;23691;52.486;4.650;2022-11-20T12:35:03;39.08;;;17.35;;
37851;SDS011;23691;52.486;4.650;2022-11-20T12:37:57;39.42;;;23.52;;
37851;SDS011;23691;52.486;4.650;2022-11-20T12:43:43;42.53;;;25.90;;
37851;SDS011;23691;52.486;4.650;2022-11-20T12:46:59;37.72;;;17.50;;
37851;SDS011;23691;52.486;4.650;2022-11-20T12:49:36;37.10;;;16.95;;
37851;SDS011;23691;52.486;4.650;2022-11-20T12:55:23;42.25;;;18.73;;
37851;SDS011;23691;52.486;4.650;2022-11-20T12:57:55;39.72;;;17.95;;
37851;SDS011;23691;52.486;4.650;2022-11-20T13:00:25;46.83;;;27.08;;
37851;SDS011;23691;52.486;4.650;2022-11-20T13:08:39;47.65;;;28.05;;
37851;SDS011;23691;52.486;4.650;2022-11-20T13:14:04;41.00;;;17.63;;
37851;SDS011;23691;52.486;4.650;2022-11-20T13:16:38;46.75;;;29.40;;
37851;SDS011;23691;52.486;4.650;2022-11-20T13:19:12;51.20;;;28.90;;
37851;SDS011;23691;52.486;4.650;2022-11-20T13:21:40;40.47;;;17.85;;
37851;SDS011;23691;52.486;4.650;2022-11-20T13:24:20;48.00;;;27.90;;
37851;SDS011;23691;52.486;4.650;2022-11-20T13:29:31;45.85;;;27.70;;
37851;SDS011;23691;52.486;4.650;2022-11-20T13:32:13;45.57;;;19.07;;
37851;SDS011;23691;52.486;4.650;2022-11-20T13:34:51;44.60;;;18.83;;
37851;SDS011;23691;52.486;4.650;2022-11-20T13:39:51;48.65;;;27.95;;
37851;SDS011;23691;52.486;4.650;2022-11-20T13:42:23;49.25;;;28.52;;
37851;SDS011;23691;52.486;4.650;2022-11-20T13:44:55;48.22;;;27.83;;
37851;SDS011;23691;52.486;4.650;2022-11-20T13:47:27;48.58;;;28.23;;
37851;SDS011;23691;52.486;4.650;2022-11-20T13:49:54;50.58;;;28.95;;
37851;SDS011;23691;52.486;4.650;2022-11-20T14:01:00;49.73;;;29.13;;
37851;SDS011;23691;52.486;4.650;2022-11-20T14:03:33;52.88;;;28.33;;
37851;SDS011;23691;52.486;4.650;2022-11-20T14:08:51;54.00;;;29.55;;
37851;SDS011;23691;52.486;4.650;2022-11-20T14:11:20;44.42;;;18.42;;
37851;SDS011;23691;52.486;4.650;2022-11-20T14:14:03;51.90;;;28.52;;
37851;SDS011;23691;52.486;4.650;2022-11-20T14:16:40;36.97;;;16.50;;
37851;SDS011;23691;52.486;4.650;2022-11-20T14:21:52;53.55;;;30.63;;
37851;SDS011;23691;52.486;4.650;2022-11-20T14:24:36;52.03;;;29.90;;
37851;SDS011;23691;52.486;4.650;2022-11-20T14:27:02;49.95;;;28.05;;
37851;SDS011;23691;52.486;4.650;2022-11-20T14:29:34;52.13;;;27.65;;
37851;SDS011;23691;52.486;4.650;2022-11-20T14:32:01;48.85;;;27.42;;
37851;SDS011;23691;52.486;4.650;2022-11-20T14:34:28;50.25;;;28.48;;
37851;SDS011;23691;52.486;4.650;2022-11-20T14:37:01;53.45;;;29.27;;
37851;SDS011;23691;52.486;4.650;2022-11-20T14:39:30;48.22;;;27.90;;
37851;SDS011;23691;52.486;4.650;2022-11-20T14:41:58;47.30;;;27.63;;
37851;SDS011;23691;52.486;4.650;2022-11-20T14:44:33;51.83;;;28.17;;
37851;SDS011;23691;52.486;4.650;2022-11-20T14:47:00;50.35;;;29.25;;
37851;SDS011;23691;52.486;4.650;2022-11-20T14:49:27;50.07;;;28.77;;
37851;SDS011;23691;52.486;4.650;2022-11-20T14:52:02;50.17;;;28.77;;
37851;SDS011;23691;52.486;4.650;2022-11-20T14:54:44;59.85;;;32.55;;
37851;SDS011;23691;52.486;4.650;2022-11-20T14:59:46;61.67;;;33.10;;
37851;SDS011;23691;52.486;4.650;2022-11-20T15:02:11;54.60;;;31.60;;
37851;SDS011;23691;52.486;4.650;2022-11-20T15:04:51;55.65;;;29.88;;
37851;SDS011;23691;52.486;4.650;2022-11-20T15:07:23;55.95;;;30.35;;
37851;SDS011;23691;52.486;4.650;2022-11-20T15:10:23;51.58;;;29.67;;
37851;SDS011;23691;52.486;4.650;2022-11-20T15:12:51;54.40;;;30.63;;
37851;SDS011;23691;52.486;4.650;2022-11-20T15:15:27;54.70;;;31.63;;
37851;SDS011;23691;52.486;4.650;2022-11-20T15:18:05;59.13;;;31.52;;
37851;SDS011;23691;52.486;4.650;2022-11-20T15:20:36;58.67;;;31.20;;
37851;SDS011;23691;52.486;4.650;2022-11-20T15:23:01;56.88;;;30.67;;
37851;SDS011;23691;52.486;4.650;2022-11-20T15:25:27;61.88;;;33.17;;
37851;SDS011;23691;52.486;4.650;2022-11-20T15:27:54;64.53;;;33.38;;
37851;SDS011;23691;52.486;4.650;2022-11-20T15:30:21;58.33;;;33.03;;
37851;SDS011;23691;52.486;4.650;2022-11-20T15:32:47;61.92;;;34.83;;
37851;SDS011;23691;52.486;4.650;2022-11-20T15:35:14;64.63;;;36.13;;
37851;SDS011;23691;52.486;4.650;2022-11-20T15:37:40;48.80;;;21.90;;
37851;SDS011;23691;52.486;4.650;2022-11-20T15:40:07;47.85;;;22.08;;
37851;SDS011;23691;52.486;4.650;2022-11-20T15:42:34;61.42;;;34.55;;
37851;SDS011;23691;52.486;4.650;2022-11-20T15:45:15;64.40;;;35.42;;
37851;SDS011;23691;52.486;4.650;2022-11-20T15:47:41;62.50;;;37.03;;
37851;SDS011;23691;52.486;4.650;2022-11-20T15:50:08;64.10;;;36.45;;
37851;SDS011;23691;52.486;4.650;2022-11-20T15:52:42;57.08;;;32.53;;
37851;SDS011;23691;52.486;4.650;2022-11-20T15:55:09;60.53;;;34.83;;
37851;SDS011;23691;52.486;4.650;2022-11-20T15:57:35;45.63;;;26.30;;
37851;SDS011;23691;52.486;4.650;2022-11-20T16:00:00;50.00;;;20.55;;
37851;SDS011;23691;52.486;4.650;2022-11-20T16:02:26;46.28;;;20.13;;
37851;SDS011;23691;52.486;4.650;2022-11-20T16:04:51;61.60;;;34.92;;
37851;SDS011;23691;52.486;4.650;2022-11-20T16:07:16;44.72;;;20.15;;
37851;SDS011;23691;52.486;4.650;2022-11-20T16:09:42;52.13;;;20.98;;
37851;SDS011;23691;52.486;4.650;2022-11-20T16:12:08;44.78;;;20.17;;
37851;SDS011;23691;52.486;4.650;2022-11-20T16:14:54;63.63;;;35.70;;
37851;SDS011;23691;52.486;4.650;2022-11-20T16:17:38;44.80;;;19.27;;
37851;SDS011;23691;52.486;4.650;2022-11-20T16:20:10;42.50;;;18.40;;
37851;SDS011;23691;52.486;4.650;2022-11-20T16:22:36;53.00;;;22.88;;